Time;durP1;ratioP1;P1;durP2;ratioP2;P2;SDS_P1;SDS_P2;PMS_P1;PMS_P2;Temp;Humidity;BMP_temperature;BMP_pressure;BME280_temperature;BME280_humidity;BME280_pressure;Samples;Min_cycle;Max_cycle;Signal;HPM_P1;HPM_P2
2021/07/22 00:00:41;;;;;;;5.85;4.83;;;;;;;21.30;77.78;99907.27;1768260;80;20885;-81
2021/07/22 00:03:08;;;;;;;6.55;4.42;;;;;;;21.30;77.70;99910.45;1768684;81;21098;-80
2021/07/22 00:05:35;;;;;;;5.67;4.85;;;;;;;21.30;77.75;99909.94;1768241;81;20996;-79
2021/07/22 00:08:01;;;;;;;5.05;4.33;;;;;;;21.30;77.71;99905.12;1768522;81;20889;-79
2021/07/22 00:10:29;;;;;;;5.08;4.65;;;;;;;21.31;77.81;99910.77;1768004;80;20873;-79
2021/07/22 00:12:57;;;;;;;5.72;5.17;;;;;;;21.31;77.89;99909.43;1768282;81;21469;-79
2021/07/22 00:15:26;;;;;;;6.17;5.58;;;;;;;21.30;77.81;99910.45;1768318;81;20925;-79
2021/07/22 00:17:53;;;;;;;7.37;5.10;;;;;;;21.30;78.08;99912.61;1768050;80;20912;-78
2021/07/22 00:20:20;;;;;;;7.00;5.35;;;;;;;21.30;78.07;99908.61;1768415;81;20874;-81
2021/07/22 00:22:46;;;;;;;6.90;5.33;;;;;;;21.30;78.13;99903.27;1768506;81;21454;-80
2021/07/22 00:25:13;;;;;;;7.20;5.87;;;;;;;21.29;78.24;99904.27;1768995;81;20964;-79
2021/07/22 00:27:40;;;;;;;6.62;5.67;;;;;;;21.29;78.32;99903.45;1768604;80;21506;-79
2021/07/22 00:30:08;;;;;;;6.90;5.95;;;;;;;21.28;78.51;99911.95;1768302;81;21446;-81
2021/07/22 00:32:35;;;;;;;9.53;6.83;;;;;;;21.30;78.39;99919.79;1768290;80;20925;-80
2021/07/22 00:35:04;;;;;;;6.75;6.10;;;;;;;21.29;78.54;99912.27;1768182;81;20971;-79
2021/07/22 00:37:32;;;;;;;7.78;5.80;;;;;;;21.31;78.58;99914.25;1768294;81;20873;-80
2021/07/22 00:39:59;;;;;;;8.40;6.50;;;;;;;21.31;78.56;99911.59;1768467;81;21788;-79
2021/07/22 00:42:26;;;;;;;6.87;6.25;;;;;;;21.31;78.76;99914.77;1768294;81;20925;-80
2021/07/22 00:44:54;;;;;;;6.97;6.03;;;;;;;21.31;78.89;99916.09;1768273;80;20925;-79
2021/07/22 00:47:21;;;;;;;7.62;6.92;;;;;;;21.30;78.89;99906.45;1768362;81;20848;-80
2021/07/22 00:49:50;;;;;;;7.20;6.50;;;;;;;21.30;78.80;99911.27;1768564;81;20924;-80
2021/07/22 00:52:16;;;;;;;13.30;8.23;;;;;;;21.32;78.92;99911.92;1768204;80;21140;-79
2021/07/22 00:54:43;;;;;;;9.03;7.15;;;;;;;21.34;78.89;99914.39;1768319;80;20920;-80
2021/07/22 00:57:12;;;;;;;10.08;7.78;;;;;;;21.35;78.88;99913.41;1740416;81;20940;-80
2021/07/22 00:59:39;;;;;;;9.80;8.80;;;;;;;21.35;78.96;99913.41;1740731;81;20901;-80
2021/07/22 01:02:07;;;;;;;10.23;9.23;;;;;;;21.36;78.89;99912.89;1768367;81;20924;-79
2021/07/22 01:04:35;;;;;;;12.88;9.93;;;;;;;21.37;78.94;99918.56;1768255;81;21429;-79
2021/07/22 01:07:04;;;;;;;11.68;8.85;;;;;;;21.38;78.89;99921.55;1768179;80;20960;-80
2021/07/22 01:09:31;;;;;;;13.95;11.08;;;;;;;21.40;78.89;99924.35;1768627;80;20888;-80
2021/07/22 01:12:00;;;;;;;12.73;9.68;;;;;;;21.40;79.05;99925.69;1768351;81;20889;-80
2021/07/22 01:14:27;;;;;;;14.60;10.95;;;;;;;21.42;78.83;99929.04;1768402;81;20885;-80
2021/07/22 01:16:56;;;;;;;11.97;10.05;;;;;;;21.43;78.57;99929.38;1768146;81;22205;-79
2021/07/22 01:19:23;;;;;;;16.93;11.15;;;;;;;21.44;78.60;99930.20;1749466;80;20936;-79
2021/07/22 01:21:51;;;;;;;13.13;10.63;;;;;;;21.42;78.43;99929.55;1785917;80;20960;-80
2021/07/22 01:24:18;;;;;;;12.88;11.60;;;;;;;21.41;78.23;99924.73;1785851;80;20935;-80
2021/07/22 01:27:02;;;;;;;14.05;12.07;;;;;;;21.42;78.30;99930.88;1786096;80;20896;-81
2021/07/22 01:29:40;;;;;;;14.35;11.55;;;;;;;21.41;78.16;99937.21;1785395;80;21146;-80
2021/07/22 01:32:08;;;;;;;13.10;11.08;;;;;;;21.41;78.13;99931.39;1785946;80;20904;-80
2021/07/22 01:34:35;;;;;;;14.38;11.12;;;;;;;21.41;77.84;99930.06;1785904;80;20920;-81
2021/07/22 01:37:05;;;;;;;15.15;11.75;;;;;;;21.40;77.56;99937.69;1785952;80;20947;-81
2021/07/22 01:39:32;;;;;;;12.23;10.63;;;;;;;21.39;77.48;99944.53;1785902;80;20825;-81
2021/07/22 01:42:00;;;;;;;15.05;10.55;;;;;;;21.37;77.54;99943.91;1785936;80;22169;-81
2021/07/22 01:44:29;;;;;;;17.48;11.60;;;;;;;21.35;77.64;99945.41;1785823;80;20972;-80
2021/07/22 01:46:57;;;;;;;17.32;9.83;;;;;;;21.36;77.72;99941.72;1785924;80;20916;-80
2021/07/22 01:49:24;;;;;;;16.12;10.80;;;;;;;21.37;77.36;99951.40;1785865;80;20912;-81
2021/07/22 01:51:53;;;;;;;16.70;11.28;;;;;;;21.37;77.20;99950.06;1785891;80;20872;-80
2021/07/22 01:54:20;;;;;;;13.95;10.45;;;;;;;21.35;77.10;99949.41;1785872;80;21125;-82
2021/07/22 01:56:48;;;;;;;16.42;10.82;;;;;;;21.30;76.98;99949.95;1785942;80;20916;-81
2021/07/22 01:59:15;;;;;;;12.63;10.25;;;;;;;21.26;77.19;99951.30;1786047;80;20951;-81
2021/07/22 02:01:43;;;;;;;15.28;10.35;;;;;;;21.22;77.24;99951.33;1785794;80;21449;-81
2021/07/22 02:04:12;;;;;;;12.55;10.30;;;;;;;21.22;77.38;99955.33;1779150;80;20865;-81
2021/07/22 02:06:40;;;;;;;12.50;10.10;;;;;;;21.23;77.37;99958.82;1785946;80;21551;-81
2021/07/22 02:09:08;;;;;;;13.85;10.53;;;;;;;21.23;77.33;99965.48;1785476;80;20916;-82
2021/07/22 02:11:35;;;;;;;12.95;10.28;;;;;;;21.22;77.29;99961.17;1785888;80;21460;-80
2021/07/22 02:14:03;;;;;;;9.85;8.63;;;;;;;21.21;77.51;99971.50;1785797;80;21189;-81
2021/07/22 02:16:31;;;;;;;9.93;7.95;;;;;;;21.21;77.09;99969.69;1748466;82;20877;-80
2021/07/22 02:18:58;;;;;;;9.33;8.35;;;;;;;21.18;76.30;99976.69;1782846;80;21087;-81
2021/07/22 02:21:26;;;;;;;11.05;8.68;;;;;;;21.11;76.10;99967.23;1775124;80;20963;-81
2021/07/22 02:23:54;;;;;;;9.08;8.18;;;;;;;21.07;76.10;99977.92;1738262;82;21498;-80
2021/07/22 02:26:22;;;;;;;9.58;8.68;;;;;;;21.03;76.03;99973.97;1774180;80;20897;-82
2021/07/22 02:28:51;;;;;;;10.85;7.95;;;;;;;20.99;76.27;99976.66;1775625;80;20912;-82
2021/07/22 02:31:18;;;;;;;11.97;8.03;;;;;;;20.97;76.20;99976.00;1775728;80;21150;-81
2021/07/22 02:33:45;;;;;;;11.95;8.45;;;;;;;20.93;75.76;99975.20;1775685;80;20988;-79
2021/07/22 02:36:12;;;;;;;10.78;7.55;;;;;;;20.87;75.65;99976.20;1775521;80;20841;-79
2021/07/22 02:38:59;;;;;;;8.08;7.12;;;;;;;20.85;75.85;99978.24;1775455;80;20932;-81
2021/07/22 02:41:29;;;;;;;9.28;6.87;;;;;;;20.84;75.92;99981.07;1738244;82;20924;-80
2021/07/22 02:43:57;;;;;;;9.38;7.28;;;;;;;20.84;76.02;99977.07;1775262;80;21195;-80
2021/07/22 02:46:25;;;;;;;11.20;7.87;;;;;;;20.84;75.68;99983.73;1775275;80;20961;-81
2021/07/22 02:48:57;;;;;;;9.70;7.37;;;;;;;20.83;75.46;99982.05;1774927;80;21011;-79
2021/07/22 02:51:24;;;;;;;8.50;7.40;;;;;;;20.77;75.19;99984.11;1775309;80;21433;-79
2021/07/22 02:53:52;;;;;;;8.93;6.78;;;;;;;20.74;75.30;99988.44;1738534;82;20928;-78
2021/07/22 02:56:20;;;;;;;10.18;6.60;;;;;;;20.73;75.38;99988.13;1774683;80;21540;-78
2021/07/22 02:58:48;;;;;;;8.00;7.00;;;;;;;20.74;75.15;99994.59;1775202;80;20917;-77
2021/07/22 03:01:14;;;;;;;8.68;6.92;;;;;;;20.73;75.02;99999.61;1738130;82;20937;-79
2021/07/22 03:03:43;;;;;;;8.40;6.90;;;;;;;20.71;75.02;100006.94;1775455;80;20908;-79
2021/07/22 03:06:15;;;;;;;8.85;6.08;;;;;;;20.73;75.19;100012.10;1775389;80;20920;-78
2021/07/22 03:08:45;;;;;;;9.13;7.00;;;;;;;20.73;75.15;100017.43;1775807;80;21131;-77
2021/07/22 03:11:13;;;;;;;9.23;6.47;;;;;;;20.72;74.72;100017.09;1775280;80;20881;-76
2021/07/22 03:13:41;;;;;;;6.83;5.95;;;;;;;20.70;74.49;100019.95;1738425;82;21427;-78
2021/07/22 03:16:11;;;;;;;11.10;5.85;;;;;;;20.67;74.30;100029.09;1775289;80;21528;-77
2021/07/22 03:18:56;;;;;;;9.15;5.53;;;;;;;20.63;74.47;100025.13;1775256;80;21101;-76
2021/07/22 03:21:24;;;;;;;10.15;7.47;;;;;;;20.63;74.43;100028.28;1753291;80;21157;-76
2021/07/22 03:24:02;;;;;;;7.00;6.37;;;;;;;20.62;74.38;100038.11;1741191;80;20881;-78
2021/07/22 03:26:29;;;;;;;7.10;5.70;;;;;;;20.60;74.08;100032.63;1775534;80;20869;-77
2021/07/22 03:29:19;;;;;;;10.05;5.55;;;;;;;20.57;73.78;100028.48;1775679;80;20892;-75
2021/07/22 03:31:51;;;;;;;6.53;5.80;;;;;;;20.55;73.77;100029.63;1768507;80;20950;-77
2021/07/22 03:34:20;;;;;;;6.15;5.55;;;;;;;20.50;73.76;100030.97;1774804;80;21356;-78
2021/07/22 03:36:52;;;;;;;6.87;5.40;;;;;;;20.46;73.60;100030.15;1774311;80;20864;-77
2021/07/22 03:39:19;;;;;;;8.68;5.45;;;;;;;20.40;73.64;100036.97;1775175;80;21528;-77
2021/07/22 03:41:48;;;;;;;7.67;5.45;;;;;;;20.36;73.44;100036.16;1775456;80;20944;-77
2021/07/22 03:44:30;;;;;;;5.80;4.78;;;;;;;20.35;73.65;100037.99;1708309;82;20901;-77
2021/07/22 03:46:57;;;;;;;8.45;5.50;;;;;;;20.34;73.36;100043.48;1676520;85;21121;-75
2021/07/22 03:49:25;;;;;;;7.92;5.37;;;;;;;20.32;73.18;100038.34;1675381;83;21001;-75
2021/07/22 03:51:56;;;;;;;5.65;5.12;;;;;;;20.27;72.99;100047.31;1676694;85;21063;-76
2021/07/22 03:54:25;;;;;;;8.28;5.47;;;;;;;20.25;73.24;100043.52;1676350;85;21012;-75
2021/07/22 03:56:52;;;;;;;6.20;4.65;;;;;;;20.22;72.72;100047.83;1709002;83;20948;-76
2021/07/22 03:59:23;;;;;;;5.45;4.80;;;;;;;20.17;72.73;100055.50;1675253;85;21552;-78
2021/07/22 04:01:52;;;;;;;5.92;5.30;;;;;;;20.11;72.70;100052.17;1676376;85;20933;-77
2021/07/22 04:04:21;;;;;;;6.65;5.35;;;;;;;20.08;72.73;100052.02;1707457;83;20888;-77
2021/07/22 04:06:51;;;;;;;6.15;4.92;;;;;;;20.07;72.94;100050.84;1677696;85;20941;-76
2021/07/22 04:09:19;;;;;;;7.53;5.28;;;;;;;20.10;73.06;100055.84;1707217;83;21362;-77
2021/07/22 04:12:03;;;;;;;8.00;5.03;;;;;;;20.11;72.95;100048.69;1675770;85;21140;-76
2021/07/22 04:14:36;;;;;;;6.97;5.00;;;;;;;20.09;72.87;100055.50;1675156;85;20960;-77
2021/07/22 04:17:05;;;;;;;5.40;4.90;;;;;;;20.07;72.81;100057.49;1592566;88;21028;-77
2021/07/22 04:19:42;;;;;;;7.55;5.33;;;;;;;20.07;72.92;100057.49;1621439;83;21015;-77
2021/07/22 04:22:12;;;;;;;7.72;4.50;;;;;;;20.07;73.16;100052.17;1711723;83;20880;-76
2021/07/22 04:24:43;;;;;;;8.60;5.00;;;;;;;20.13;73.26;100056.00;1711225;83;21398;-76
2021/07/22 04:27:21;;;;;;;9.20;5.10;;;;;;;20.14;72.85;100057.66;1710339;83;20900;-75
2021/07/22 04:29:49;;;;;;;6.05;4.78;;;;;;;20.12;72.85;100051.19;1711323;83;21382;-77
2021/07/22 04:34:34;;;;;;;4.80;4.30;;;;;;;20.17;72.73;100052.84;1854494;77;22630;-77
2021/07/22 04:37:12;;;;;;;7.12;4.75;;;;;;;20.12;72.95;100050.33;1819534;78;20879;-79
2021/07/22 04:39:44;;;;;;;7.60;4.45;;;;;;;20.14;73.27;100049.16;1817154;78;21163;-79
2021/07/22 04:42:19;;;;;;;5.97;4.87;;;;;;;20.14;72.87;100044.34;1819465;78;21519;-78
2021/07/22 04:44:54;;;;;;;7.87;4.72;;;;;;;20.13;72.99;100050.68;1817281;78;20958;-76
2021/07/22 04:47:41;;;;;;;7.35;5.30;;;;;;;20.12;72.99;100051.66;1817486;78;20904;-76
2021/07/22 04:50:13;;;;;;;5.37;4.47;;;;;;;20.10;73.02;100047.86;1821168;78;21440;-80
2021/07/22 04:52:45;;;;;;;5.58;4.85;;;;;;;20.11;73.20;100058.00;1819838;78;21715;-77
2021/07/22 04:55:14;;;;;;;7.17;4.92;;;;;;;20.14;73.44;100054.98;1821035;78;20931;-77
2021/07/22 04:57:40;;;;;;;9.13;4.92;;;;;;;20.17;73.01;100055.50;1822219;78;21491;-77
2021/07/22 05:00:10;;;;;;;6.17;4.62;;;;;;;20.18;73.08;100056.33;1822348;78;20844;-79
2021/07/22 05:02:39;;;;;;;7.80;4.85;;;;;;;20.19;72.85;100056.67;1819807;78;20871;-76
2021/07/22 05:05:08;;;;;;;8.50;5.10;;;;;;;20.21;72.64;100048.84;1822105;78;21928;-77
2021/07/22 05:07:37;;;;;;;5.03;4.60;;;;;;;20.19;72.66;100055.34;1820125;78;20986;-79
2021/07/22 05:10:20;;;;;;;9.90;5.55;;;;;;;20.19;72.90;100052.68;1820648;78;25284;-76
2021/07/22 05:13:06;;;;;;;5.53;4.72;;;;;;;20.22;72.86;100054.48;1822077;78;20888;-75
2021/07/22 05:15:45;;;;;;;7.70;4.67;;;;;;;20.21;72.59;100050.17;1766809;78;20940;-76
2021/07/22 05:18:31;;;;;;;6.60;4.47;;;;;;;20.24;72.82;100051.66;1822261;78;21444;-78
2021/07/22 05:21:05;;;;;;;6.03;4.95;;;;;;;20.24;72.69;100055.16;1812029;78;21384;-78
2021/07/22 05:23:47;;;;;;;;;;;;;;;20.23;72.86;100049.98;1822343;78;20888;-77
2021/07/22 05:26:16;;;;;;;11.25;5.85;;;;;;;20.23;72.93;100051.31;1817481;78;20101;-75
2021/07/22 05:28:50;;;;;;;9.23;5.65;;;;;;;20.27;72.76;100052.14;1821788;78;21135;-76
2021/07/22 05:31:19;;;;;;;6.00;5.40;;;;;;;20.29;72.68;100051.98;1818322;78;21855;-76
2021/07/22 05:34:04;;;;;;;7.30;5.40;;;;;;;20.33;72.74;100051.16;1821912;78;20974;-80
2021/07/22 05:36:42;;;;;;;5.67;5.17;;;;;;;20.34;72.57;100053.63;1821203;78;20903;-78
2021/07/22 05:39:22;;;;;;;6.67;5.58;;;;;;;20.41;72.38;100058.63;1821494;78;20920;-77
2021/07/22 05:41:49;;;;;;;9.93;5.72;;;;;;;20.45;72.06;100051.96;1822317;78;20922;-77
2021/07/22 05:44:16;;;;;;;9.90;5.50;;;;;;;20.47;72.09;100047.27;1821909;78;21145;-76
2021/07/22 05:46:43;;;;;;;6.85;4.72;;;;;;;20.51;72.15;100059.76;1821705;78;20884;-78
2021/07/22 05:49:10;;;;;;;9.70;4.90;;;;;;;20.56;72.25;100052.08;1821641;78;21041;-78
2021/07/22 05:51:37;;;;;;;7.30;5.75;;;;;;;20.67;72.18;100057.06;1821777;78;21113;-79
2021/07/22 05:54:04;;;;;;;7.17;5.30;;;;;;;20.75;71.34;100054.89;1821855;78;20900;-80
2021/07/22 05:56:31;;;;;;;7.08;5.60;;;;;;;20.80;71.24;100061.86;1821853;78;21551;-77
2021/07/22 05:58:58;;;;;;;8.25;4.78;;;;;;;20.86;71.03;100061.18;1821745;78;21128;-77
2021/07/22 06:01:25;;;;;;;7.20;4.25;;;;;;;20.97;71.06;100060.48;1816909;78;20856;-79
2021/07/22 06:03:52;;;;;;;7.47;4.62;;;;;;;21.06;70.47;100054.10;1821525;78;20959;-80
2021/07/22 06:06:18;;;;;;;7.35;5.10;;;;;;;21.15;69.78;100062.38;1821688;78;20923;-74
2021/07/22 06:08:45;;;;;;;8.68;5.25;;;;;;;21.25;68.98;100050.97;1821131;78;21774;-73
2021/07/22 06:11:12;;;;;;;6.85;4.40;;;;;;;21.34;68.06;100055.77;1821550;78;20947;-75
2021/07/22 06:13:41;;;;;;;11.90;4.92;;;;;;;21.45;67.99;100054.56;1821739;78;20955;-73
2021/07/22 06:16:13;;;;;;;5.30;4.80;;;;;;;21.57;67.27;100061.68;1821645;78;20919;-74
2021/07/22 06:18:42;;;;;;;6.55;4.83;;;;;;;21.69;66.04;100059.73;1821467;78;20951;-73
2021/07/22 06:21:14;;;;;;;8.50;4.90;;;;;;;21.80;65.58;100064.34;1821897;78;21144;-77
2021/07/22 06:23:42;;;;;;;9.68;4.97;;;;;;;21.93;65.33;100061.89;1821573;78;20978;-75
2021/07/22 06:26:09;;;;;;;8.63;4.37;;;;;;;22.03;64.92;100068.30;1822168;78;20880;-76
2021/07/22 06:28:39;;;;;;;7.92;5.15;;;;;;;22.11;64.41;100066.91;1821565;78;20868;-78
2021/07/22 06:31:06;;;;;;;8.48;4.87;;;;;;;22.15;64.76;100071.70;1821660;78;20899;-75
2021/07/22 06:33:33;;;;;;;6.67;4.87;;;;;;;22.23;64.40;100080.20;1822815;78;21146;-78
2021/07/22 06:36:00;;;;;;;7.47;5.10;;;;;;;22.30;64.41;100083.80;1824957;78;20825;-75
2021/07/22 06:38:29;;;;;;;6.25;4.42;;;;;;;22.38;64.58;100080.20;1825099;78;20856;-76
2021/07/22 06:40:57;;;;;;;9.85;4.75;;;;;;;22.38;63.76;100080.20;1825109;78;20943;-77
2021/07/22 06:43:24;;;;;;;7.75;4.67;;;;;;;22.36;63.65;100079.55;1825140;78;20915;-77
2021/07/22 06:45:52;;;;;;;8.15;4.60;;;;;;;22.37;63.46;100084.37;1824626;78;21546;-77
2021/07/22 06:48:21;;;;;;;8.90;5.00;;;;;;;22.36;63.40;100082.22;1824902;78;20891;-81
2021/07/22 06:50:49;;;;;;;8.63;4.92;;;;;;;22.38;63.61;100082.88;1825357;78;20919;-78
2021/07/22 06:53:15;;;;;;;8.45;5.15;;;;;;;22.45;63.72;100077.11;1824804;78;20939;-79
2021/07/22 06:55:43;;;;;;;9.50;4.15;;;;;;;22.53;63.00;100085.06;1824909;78;20856;-80
2021/07/22 06:58:10;;;;;;;6.17;4.67;;;;;;;22.60;62.40;100083.81;1825085;78;21833;-80
2021/07/22 07:00:37;;;;;;;6.95;4.55;;;;;;;22.68;61.96;100081.06;1824862;78;20907;-79
2021/07/22 07:03:07;;;;;;;6.20;4.15;;;;;;;22.78;62.00;100088.80;1825031;78;20899;-79
2021/07/22 07:05:34;;;;;;;6.75;4.87;;;;;;;22.86;61.58;100092.72;1824666;78;20939;-79
2021/07/22 07:08:01;;;;;;;9.00;5.40;;;;;;;22.97;61.44;100090.91;1825073;78;21451;-80
2021/07/22 07:10:29;;;;;;;6.83;4.75;;;;;;;23.06;61.29;100089.00;1825131;78;20836;-79
2021/07/22 07:12:58;;;;;;;8.88;5.72;;;;;;;23.16;60.32;100088.70;1825054;78;20856;-76
2021/07/22 07:15:26;;;;;;;10.25;5.03;;;;;;;23.20;59.55;100089.98;1825162;78;20898;-79
2021/07/22 07:17:54;;;;;;;5.37;4.55;;;;;;;23.23;59.23;100090.11;1824877;78;20895;-79
2021/07/22 07:20:21;;;;;;;6.47;3.85;;;;;;;23.32;59.71;100088.50;1825107;78;21009;-78
2021/07/22 07:22:50;;;;;;;6.30;4.45;;;;;;;23.51;59.86;100095.07;1824986;78;21024;-79
2021/07/22 07:25:17;;;;;;;7.00;4.85;;;;;;;23.78;59.81;100088.68;1825035;78;20899;-77
2021/07/22 07:27:44;;;;;;;8.20;4.60;;;;;;;24.07;58.37;100085.55;1825097;78;21401;-78
2021/07/22 07:30:13;;;;;;;7.83;4.47;;;;;;;24.31;57.01;100089.13;1824818;78;20927;-80
2021/07/22 07:32:40;;;;;;;5.20;4.67;;;;;;;24.45;55.97;100085.20;1824983;78;20856;-83
2021/07/22 07:35:08;;;;;;;10.82;5.12;;;;;;;24.58;55.84;100090.69;1791748;78;21381;-82
2021/07/22 07:37:35;;;;;;;7.75;4.30;;;;;;;24.87;55.41;100088.79;1786189;79;20864;-80
2021/07/22 07:40:03;;;;;;;6.15;4.33;;;;;;;25.19;55.15;100084.61;1786686;79;20931;-80
2021/07/22 07:42:30;;;;;;;4.80;4.03;;;;;;;25.51;53.27;100076.36;1786997;80;20883;-78
2021/07/22 07:44:58;;;;;;;7.87;4.53;;;;;;;25.75;52.64;100083.54;1786460;80;21046;-79
2021/07/22 07:47:25;;;;;;;5.00;3.80;;;;;;;25.93;51.16;100080.28;1786267;80;21823;-79
2021/07/22 07:49:53;;;;;;;9.85;5.25;;;;;;;26.18;50.82;100084.52;1786428;79;20904;-78
2021/07/22 07:52:20;;;;;;;4.90;3.90;;;;;;;26.44;51.24;100080.98;1786054;80;20951;-79
2021/07/22 07:54:51;;;;;;;5.80;4.05;;;;;;;26.87;49.79;100077.26;1786271;80;20852;-78
2021/07/22 07:57:18;;;;;;;5.75;4.22;;;;;;;27.27;48.55;100079.81;1786070;80;21389;-81
2021/07/22 07:59:46;;;;;;;3.70;3.40;;;;;;;27.64;47.08;100077.33;1786345;80;21100;-81
2021/07/22 08:02:16;;;;;;;5.40;4.28;;;;;;;28.15;47.43;100079.57;1786134;80;20979;-80
2021/07/22 08:04:43;;;;;;;4.42;4.03;;;;;;;28.66;45.96;100077.66;1786079;80;20900;-80
2021/07/22 08:07:10;;;;;;;4.17;3.77;;;;;;;29.16;44.71;100068.03;1786177;79;20927;-80
2021/07/22 08:09:38;;;;;;;3.70;3.30;;;;;;;29.36;43.96;100083.16;1786029;80;21357;-82
2021/07/22 08:12:05;;;;;;;6.62;4.08;;;;;;;29.32;43.38;100077.37;1786084;79;21115;-82
2021/07/22 08:14:37;;;;;;;4.60;3.62;;;;;;;29.16;43.29;100073.97;1786369;80;20927;-80
2021/07/22 08:17:05;;;;;;;3.92;3.60;;;;;;;28.83;43.97;100085.42;1786067;80;20951;-79
2021/07/22 08:19:32;;;;;;;5.05;3.98;;;;;;;28.69;43.80;100078.02;1786287;79;20943;-79
2021/07/22 08:21:59;;;;;;;5.30;3.95;;;;;;;28.68;43.12;100087.17;1786110;80;20904;-78
2021/07/22 08:24:26;;;;;;;6.62;4.37;;;;;;;28.79;43.63;100078.86;1786280;79;21052;-79
2021/07/22 08:26:53;;;;;;;7.20;3.98;;;;;;;29.11;42.54;100081.41;1785989;80;20872;-79
2021/07/22 08:29:20;;;;;;;8.60;3.70;;;;;;;29.52;42.50;100080.61;1786401;80;20883;-81
2021/07/22 08:31:48;;;;;;;8.55;3.50;;;;;;;30.03;41.84;100077.59;1786007;80;20872;-79
2021/07/22 08:34:17;;;;;;;7.15;3.70;;;;;;;30.30;41.55;100078.80;1800494;77;20856;-77
2021/07/22 08:36:45;;;;;;;6.78;4.00;;;;;;;30.30;40.22;100077.98;1824982;77;21147;-79
2021/07/22 08:39:12;;;;;;;9.05;4.40;;;;;;;29.89;40.46;100081.86;1824916;77;20947;-81
2021/07/22 08:41:46;;;;;;;8.08;4.60;;;;;;;29.70;40.06;100078.43;1824846;78;21602;-79
2021/07/22 08:44:13;;;;;;;5.35;3.90;;;;;;;29.55;41.27;100080.70;1824849;78;20954;-80
2021/07/22 08:46:45;;;;;;;5.92;5.22;;;;;;;29.77;40.02;100076.98;1824845;77;20967;-79
2021/07/22 08:49:12;;;;;;;15.43;8.18;;;;;;;29.99;40.07;100092.09;1824910;77;21062;-79
2021/07/22 08:51:39;;;;;;;5.47;4.45;;;;;;;30.41;39.63;100092.56;1824937;77;21321;-80
2021/07/22 08:54:07;;;;;;;4.53;4.12;;;;;;;30.87;38.24;100090.36;1824758;78;20828;-80
2021/07/22 08:56:34;;;;;;;8.03;4.60;;;;;;;31.29;38.54;100086.05;1824827;78;20864;-82
2021/07/22 08:59:01;;;;;;;8.43;4.55;;;;;;;31.67;37.87;100092.73;1824931;78;21006;-80
2021/07/22 09:01:31;;;;;;;4.92;4.53;;;;;;;31.44;37.53;100084.20;1824845;77;21525;-78
2021/07/22 09:03:59;;;;;;;9.18;4.47;;;;;;;30.96;38.10;100084.86;1824821;78;20888;-79
2021/07/22 09:06:26;;;;;;;8.03;5.22;;;;;;;30.37;39.12;100082.73;1824979;77;20871;-79
2021/07/22 09:08:54;;;;;;;5.80;3.90;;;;;;;30.02;40.03;100086.77;1824877;77;20958;-80
2021/07/22 09:11:21;;;;;;;8.53;5.20;;;;;;;29.87;40.91;100085.33;1825001;78;20915;-80
2021/07/22 09:13:54;;;;;;;5.95;4.80;;;;;;;29.96;41.23;100095.27;1825146;77;21238;-77
2021/07/22 09:16:37;;;;;;;7.55;4.75;;;;;;;29.95;40.86;100091.75;1810691;78;21051;-78
2021/07/22 09:19:03;;;;;;;5.58;5.00;;;;;;;30.01;40.74;100085.92;1825113;77;20971;-78
2021/07/22 09:21:30;;;;;;;5.80;4.22;;;;;;;30.01;40.83;100085.11;1825239;77;21255;-78
2021/07/22 09:24:10;;;;;;;8.00;4.75;;;;;;;30.10;41.87;100082.34;1825158;78;20852;-79
2021/07/22 09:26:39;;;;;;;4.75;3.85;;;;;;;30.15;40.96;100087.90;1825131;77;21092;-77
2021/07/22 09:29:11;;;;;;;7.20;4.08;;;;;;;29.93;41.18;100080.87;1824938;77;20899;-77
2021/07/22 09:31:37;;;;;;;4.25;3.83;;;;;;;29.68;41.37;100075.13;1825025;78;20871;-77
2021/07/22 09:34:19;;;;;;;5.58;3.90;;;;;;;29.35;41.81;100074.23;1824128;77;20955;-76
2021/07/22 09:36:46;;;;;;;7.37;3.80;;;;;;;29.08;42.28;100078.64;1821613;78;20824;-75
2021/07/22 09:39:28;;;;;;;4.58;3.58;;;;;;;29.09;42.63;100074.05;1821813;78;21130;-77
2021/07/22 09:42:03;;;;;;;3.37;3.08;;;;;;;28.96;42.90;100079.59;1821339;78;20923;-76
2021/07/22 09:44:36;;;;;;;6.55;3.62;;;;;;;29.05;43.37;100079.04;1821437;78;21471;-75
2021/07/22 09:47:09;;;;;;;4.05;3.70;;;;;;;29.18;43.05;100066.47;1821503;78;20919;-75
2021/07/22 09:49:39;;;;;;;7.33;3.42;;;;;;;29.24;42.34;100078.53;1821498;78;20919;-76
2021/07/22 09:52:22;;;;;;;4.58;3.58;;;;;;;29.36;42.67;100084.50;1821491;78;21138;-80
2021/07/22 09:54:49;;;;;;;;;;;;;;;29.47;42.47;100082.38;1824351;78;20825;-76
2021/07/22 09:57:20;;;;;;;4.50;2.85;;;;;;;29.41;42.50;100081.39;1821561;78;20159;-77
2021/07/22 09:59:48;;;;;;;3.85;3.47;;;;;;;29.49;42.15;100080.27;1821704;78;20876;-76
2021/07/22 10:02:23;;;;;;;9.68;3.27;;;;;;;29.70;41.66;100078.94;1821410;78;20904;-76
2021/07/22 10:04:59;;;;;;;3.20;2.90;;;;;;;29.96;41.08;100089.33;1821733;78;21032;-76
2021/07/22 10:07:26;;;;;;;7.60;4.37;;;;;;;30.13;41.55;100084.07;1821324;78;20891;-77
2021/07/22 10:09:57;;;;;;;8.08;3.05;;;;;;;30.12;40.69;100089.70;1821896;78;20963;-76
2021/07/22 10:12:24;;;;;;;5.58;3.02;;;;;;;30.25;40.56;100084.60;1821362;78;20884;-75
2021/07/22 10:14:58;;;;;;;5.72;2.95;;;;;;;30.23;40.24;100090.23;1821256;78;20919;-76
2021/07/22 10:17:33;;;;;;;4.60;3.08;;;;;;;30.20;40.14;100085.31;1821436;78;21137;-76
2021/07/22 10:20:06;;;;;;;4.83;2.80;;;;;;;30.27;40.62;100087.39;1821581;78;20864;-78
2021/07/22 10:22:36;;;;;;;6.05;3.17;;;;;;;30.39;39.77;100090.09;1821643;78;21389;-76
2021/07/22 10:25:06;;;;;;;4.15;2.30;;;;;;;30.41;39.71;100093.38;1821758;78;20924;-78
2021/07/22 10:27:35;;;;;;;6.12;3.08;;;;;;;30.49;38.00;100082.21;1789940;78;21516;-75
2021/07/22 10:30:07;;;;;;;7.35;3.22;;;;;;;30.56;38.19;100082.91;1789350;78;21924;-77
2021/07/22 10:32:31;;;;;;;3.10;2.42;;;;;;;30.63;37.96;100085.48;1789820;78;20990;-77
2021/07/22 10:34:58;;;;;;;2.67;2.30;;;;;;;30.73;37.66;100083.55;1821306;78;20965;-79
2021/07/22 10:37:25;;;;;;;4.08;2.27;;;;;;;30.76;38.59;100090.64;1821432;78;21450;-78
2021/07/22 10:40:10;;;;;;;4.10;2.70;;;;;;;31.00;38.48;100096.05;1821522;78;20911;-77
2021/07/22 10:42:41;;;;;;;5.25;2.15;;;;;;;31.23;37.91;100092.42;1821405;78;22091;-78
2021/07/22 10:45:24;;;;;;;5.03;2.77;;;;;;;31.45;37.45;100093.95;1822054;78;20899;-82
2021/07/22 10:48:04;;;;;;;4.85;2.50;;;;;;;31.50;37.06;100093.23;1822909;78;20916;-81
2021/07/22 10:50:48;;;;;;;3.20;2.17;;;;;;;31.39;36.45;100082.19;1822046;78;20935;-82
2021/07/22 10:53:15;;;;;;;4.95;2.42;;;;;;;31.44;36.88;100086.91;1822161;78;20903;-82
2021/07/22 10:55:48;;;;;;;5.25;2.52;;;;;;;31.60;36.00;100085.28;1821973;78;21084;-84
2021/07/22 10:58:37;;;;;;;6.35;2.30;;;;;;;31.58;36.43;100084.70;1819530;78;21338;-83
2021/07/22 11:01:08;;;;;;;2.30;1.95;;;;;;;31.69;36.92;100084.36;1822524;78;20962;-82
2021/07/22 11:03:49;;;;;;;5.15;2.50;;;;;;;31.73;35.92;100083.63;1821626;78;20911;-81
2021/07/22 11:06:17;;;;;;;3.87;3.45;;;;;;;31.91;36.80;100073.06;1821681;78;20922;-87
2021/07/22 11:08:45;;;;;;;4.22;2.45;;;;;;;32.20;36.43;100064.86;1822853;78;21137;-89
2021/07/22 11:11:16;;;;;;;4.40;2.10;;;;;;;32.37;35.15;100049.89;1817556;78;20966;-85
2021/07/22 11:13:50;;;;;;;4.83;2.70;;;;;;;32.33;34.18;100052.30;1821461;78;20958;-74
2021/07/22 11:16:26;;;;;;;4.47;1.82;;;;;;;32.00;33.57;100053.98;1822484;78;20911;-77
2021/07/22 11:19:01;;;;;;;4.72;1.80;;;;;;;31.71;33.38;100059.18;1822316;78;20884;-76
2021/07/22 11:21:33;;;;;;;4.53;2.10;;;;;;;31.32;33.29;100053.03;1821829;78;21116;-75
2021/07/22 11:24:18;;;;;;;7.03;1.77;;;;;;;30.95;33.82;100048.02;1821425;78;20922;-75
2021/07/22 11:26:50;;;;;;;2.05;1.65;;;;;;;30.67;34.21;100055.53;1821706;78;20896;-81
2021/07/22 11:29:18;;;;;;;5.17;1.92;;;;;;;30.47;34.13;100061.33;1821616;78;20840;-78
2021/07/22 11:31:55;;;;;;;3.85;1.60;;;;;;;30.32;34.81;100055.57;1821878;78;21428;-80
2021/07/22 11:34:28;;;;;;;4.05;1.82;;;;;;;30.15;35.60;100050.03;1821304;78;21776;-84
2021/07/22 11:36:56;;;;;;;4.42;1.72;;;;;;;30.00;36.30;100060.48;1821850;78;21386;-82
2021/07/22 11:39:39;;;;;;;5.03;1.90;;;;;;;29.95;36.21;100057.14;1822304;78;20931;-83
2021/07/22 11:42:08;;;;;;;2.10;1.60;;;;;;;29.88;37.27;100050.48;1821834;78;20917;-85